createdAt,value
2018-05-03T00:00:08.418Z,72.40
2018-05-03T00:01:05.901Z,72.30
2018-05-03T00:02:08.123Z,72.40
2018-05-03T00:03:05.955Z,72.40
2018-05-03T00:04:06.418Z,72.80
2018-05-03T00:05:08.781Z,73.30
2018-05-03T00:06:06.186Z,73.40
2018-05-03T00:07:05.396Z,73.80
2018-05-03T00:08:06.227Z,73.70
2018-05-03T00:09:05.828Z,74.10
2018-05-03T00:10:05.910Z,73.90
2018-05-03T00:11:06.178Z,73.70
2018-05-03T00:12:06.342Z,73.60
2018-05-03T00:13:08.112Z,73.70
2018-05-03T00:14:06.082Z,73.70
2018-05-03T00:15:06.317Z,73.50
2018-05-03T00:16:09.396Z,73.40
2018-05-03T00:17:05.927Z,73.40
2018-05-03T00:18:05.561Z,73.40
2018-05-03T00:19:05.806Z,73.30
2018-05-03T00:20:05.949Z,73.40
2018-05-03T00:21:05.778Z,74.30
2018-05-03T00:22:06.567Z,74.50
2018-05-03T00:23:05.828Z,74.20
2018-05-03T00:24:07.329Z,74.00
2018-05-03T00:25:06.063Z,74.00
2018-05-03T00:26:05.950Z,74.20
2018-05-03T00:27:05.792Z,74.20
2018-05-03T00:28:05.429Z,74.30
2018-05-03T00:29:08.348Z,75.20
2018-05-03T00:30:05.951Z,75.20
2018-05-03T00:31:05.703Z,75.00
2018-05-03T00:32:06.199Z,74.90
2018-05-03T00:33:06.202Z,74.80
2018-05-03T00:34:06.555Z,74.70
2018-05-03T00:35:06.324Z,74.90
2018-05-03T00:36:09.772Z,74.90
2018-05-03T00:37:06.352Z,74.90
2018-05-03T00:38:10.662Z,75.20
2018-05-03T00:39:06.259Z,75.20
2018-05-03T00:40:08.366Z,75.20
2018-05-03T00:41:10.921Z,75.20
2018-05-03T00:42:06.631Z,75.20
2018-05-03T00:43:05.520Z,75.20
2018-05-03T00:44:07.305Z,75.30
2018-05-03T00:45:06.497Z,75.20
2018-05-03T00:46:06.177Z,75.20
2018-05-03T00:47:08.308Z,75.00
2018-05-03T00:48:05.910Z,75.00
2018-05-03T00:49:11.206Z,75.00
2018-05-03T00:50:11.105Z,74.90
2018-05-03T00:51:08.093Z,74.90
2018-05-03T00:52:08.923Z,75.00
2018-05-03T00:53:09.942Z,75.00
2018-05-03T00:54:05.460Z,75.10
2018-05-03T00:55:11.116Z,74.90
2018-05-03T00:56:09.406Z,74.80
2018-05-03T00:57:08.448Z,74.70
2018-05-03T00:58:06.005Z,74.70
2018-05-03T00:59:05.654Z,74.70
2018-05-03T01:00:06.417Z,74.70
2018-05-03T01:01:05.983Z,74.80
2018-05-03T01:02:09.639Z,74.90
2018-05-03T01:03:06.522Z,74.90
2018-05-03T01:04:05.671Z,74.90
2018-05-03T01:05:06.321Z,75.50
2018-05-03T01:06:05.898Z,75.80
2018-05-03T01:07:06.077Z,75.60
2018-05-03T01:08:05.964Z,75.30
2018-05-03T01:09:10.577Z,75.60
2018-05-03T01:10:08.715Z,75.90
2018-05-03T01:11:06.243Z,75.90
2018-05-03T01:12:06.512Z,76.00
2018-05-03T01:13:05.743Z,76.00
2018-05-03T01:14:05.881Z,76.10
2018-05-03T01:15:10.999Z,76.40
2018-05-03T01:16:10.003Z,76.60
2018-05-03T01:17:10.710Z,76.70
2018-05-03T01:18:08.094Z,76.60
2018-05-03T01:19:06.401Z,76.60
2018-05-03T01:20:07.987Z,76.90
2018-05-03T01:21:06.347Z,76.90
2018-05-03T01:22:08.807Z,76.90
2018-05-03T01:23:06.554Z,76.90
2018-05-03T01:24:11.277Z,77.40
2018-05-03T01:25:05.966Z,77.40
2018-05-03T01:26:08.931Z,77.40
2018-05-03T01:27:09.482Z,77.70
2018-05-03T01:28:06.238Z,77.70
2018-05-03T01:29:08.379Z,78.20
2018-05-03T01:30:06.020Z,78.20
2018-05-03T01:31:06.148Z,78.30
2018-05-03T01:32:05.871Z,78.80
2018-05-03T01:33:05.813Z,78.60
2018-05-03T01:34:05.911Z,78.40
2018-05-03T01:35:10.839Z,78.40
2018-05-03T01:36:06.436Z,78.40
2018-05-03T01:37:05.728Z,78.60
2018-05-03T01:38:08.865Z,78.90
2018-05-03T01:39:06.392Z,78.90
2018-05-03T01:40:06.194Z,79.10
2018-05-03T01:41:06.247Z,79.00
2018-05-03T01:42:11.196Z,78.90
2018-05-03T01:43:10.669Z,78.90
2018-05-03T01:44:08.223Z,79.20
2018-05-03T01:45:10.879Z,79.30
2018-05-03T01:46:07.064Z,79.50
2018-05-03T01:47:09.934Z,79.60
2018-05-03T01:48:06.722Z,79.70
2018-05-03T01:49:05.414Z,80.10
2018-05-03T01:50:05.644Z,80.10
2018-05-03T01:51:12.053Z,80.40
2018-05-03T01:52:05.660Z,80.10
2018-05-03T01:53:05.589Z,80.10
2018-05-03T01:54:06.921Z,80.00
2018-05-03T01:55:08.615Z,80.20
2018-05-03T01:56:08.558Z,80.50
2018-05-03T01:57:05.539Z,80.50
2018-05-03T01:58:06.049Z,80.60
2018-05-03T01:59:11.184Z,80.50
2018-05-03T02:00:08.151Z,80.50
2018-05-03T02:01:05.681Z,80.60
2018-05-03T02:02:05.862Z,80.50
2018-05-03T02:03:06.608Z,80.60
2018-05-03T02:04:06.408Z,80.60
2018-05-03T02:05:06.619Z,80.60
2018-05-03T02:06:05.933Z,80.80
2018-05-03T02:07:06.260Z,80.80
2018-05-03T02:08:05.416Z,80.90
2018-05-03T02:09:09.291Z,81.20
2018-05-03T02:10:05.884Z,81.30
2018-05-03T02:11:05.806Z,81.80
2018-05-03T02:12:08.399Z,81.70
2018-05-03T02:13:08.364Z,81.60
2018-05-03T02:14:06.926Z,81.60
2018-05-03T02:15:05.693Z,81.60
2018-05-03T02:16:10.955Z,81.40
2018-05-03T02:17:06.103Z,81.40
2018-05-03T02:18:09.237Z,81.80
2018-05-03T02:19:08.262Z,81.90
2018-05-03T02:20:10.776Z,81.70
2018-05-03T02:21:10.842Z,81.80
2018-05-03T02:22:06.752Z,81.80
2018-05-03T02:23:05.853Z,81.60
2018-05-03T02:24:06.457Z,81.70
2018-05-03T02:25:10.414Z,82.00
2018-05-03T02:26:06.107Z,82.00
2018-05-03T02:27:10.524Z,82.40
2018-05-03T02:28:09.344Z,82.30
2018-05-03T02:29:05.798Z,82.30
2018-05-03T02:30:08.737Z,82.10
2018-05-03T02:31:06.641Z,82.10
2018-05-03T02:32:06.249Z,82.00
2018-05-03T02:33:11.224Z,82.20
2018-05-03T02:34:06.315Z,82.20
2018-05-03T02:35:06.366Z,82.20
2018-05-03T02:36:08.402Z,82.30
2018-05-03T02:37:08.952Z,82.20
2018-05-03T02:38:06.727Z,82.20
2018-05-03T02:39:05.935Z,82.20
2018-05-03T02:40:05.856Z,82.10
2018-05-03T02:41:11.269Z,82.10
2018-05-03T02:42:08.432Z,82.10
2018-05-03T02:43:06.303Z,82.10
2018-05-03T02:44:11.533Z,82.00
2018-05-03T02:45:05.668Z,81.90
2018-05-03T02:46:11.488Z,81.90
2018-05-03T02:47:08.658Z,81.70
2018-05-03T02:48:08.687Z,81.70
2018-05-03T02:49:13.358Z,81.70
2018-05-03T02:50:10.225Z,82.00
2018-05-03T02:51:05.867Z,82.00
2018-05-03T02:52:08.929Z,81.80
2018-05-03T02:53:09.622Z,81.70
2018-05-03T02:54:06.453Z,81.70
2018-05-03T02:55:06.831Z,81.90
2018-05-03T02:56:09.242Z,82.00
2018-05-03T02:57:08.338Z,81.80
2018-05-03T02:58:08.472Z,81.60
2018-05-03T02:59:09.944Z,81.70
2018-05-03T03:00:10.489Z,81.70
2018-05-03T03:01:06.303Z,81.70
2018-05-03T03:02:05.963Z,81.60
2018-05-03T03:03:05.786Z,81.80
2018-05-03T03:04:09.546Z,81.80
2018-05-03T03:05:06.097Z,81.60
2018-05-03T03:06:08.678Z,81.80
2018-05-03T03:07:06.544Z,81.80
2018-05-03T03:08:08.915Z,81.70
2018-05-03T03:09:09.111Z,81.90
2018-05-03T03:10:08.398Z,81.80
2018-05-03T03:11:11.485Z,81.70
2018-05-03T03:12:08.508Z,81.60
2018-05-03T03:13:05.968Z,81.60
2018-05-03T03:14:05.678Z,81.60
2018-05-03T03:15:09.391Z,81.60
2018-05-03T03:16:10.955Z,81.60
2018-05-03T03:17:06.353Z,81.60
2018-05-03T03:18:10.953Z,81.60
2018-05-03T03:19:06.673Z,81.60
2018-05-03T03:20:08.697Z,81.50
2018-05-03T03:21:07.219Z,81.50
2018-05-03T03:22:08.310Z,81.40
2018-05-03T03:23:09.294Z,81.30
2018-05-03T03:24:05.690Z,81.20
2018-05-03T03:25:10.096Z,81.30
2018-05-03T03:26:11.070Z,81.50
2018-05-03T03:27:06.039Z,81.50
2018-05-03T03:28:06.347Z,81.50
2018-05-03T03:29:06.249Z,81.70
2018-05-03T03:30:05.761Z,81.70
2018-05-03T03:31:06.354Z,81.60
2018-05-03T03:32:06.400Z,81.50
2018-05-03T03:33:05.821Z,81.40
2018-05-03T03:34:05.896Z,81.30
2018-05-03T03:35:11.063Z,81.20
2018-05-03T03:36:11.531Z,81.10
2018-05-03T03:37:08.394Z,81.20
2018-05-03T03:38:11.077Z,81.20
2018-05-03T03:39:08.926Z,81.40
2018-05-03T03:40:09.199Z,81.20
2018-05-03T03:41:05.793Z,81.30
2018-05-03T03:42:06.618Z,81.30
2018-05-03T03:43:08.597Z,81.70
2018-05-03T03:44:06.011Z,81.70
2018-05-03T03:45:06.011Z,81.60
2018-05-03T03:46:06.204Z,81.50
2018-05-03T03:47:05.828Z,81.50
2018-05-03T03:48:06.439Z,81.60
2018-05-03T03:49:05.764Z,81.40
2018-05-03T03:50:08.561Z,56.00
2018-05-03T03:51:11.169Z,81.60
2018-05-03T03:52:05.669Z,81.60
2018-05-03T03:53:10.767Z,81.70
2018-05-03T03:54:06.483Z,81.90
2018-05-03T03:55:06.182Z,81.80
2018-05-03T03:56:05.750Z,81.80
2018-05-03T03:57:06.636Z,82.00
2018-05-03T03:58:09.540Z,82.00
2018-05-03T03:59:06.336Z,82.00
2018-05-03T04:00:11.656Z,82.00
2018-05-03T04:01:08.888Z,82.10
2018-05-03T04:02:11.609Z,82.00
2018-05-03T04:03:05.925Z,82.00
2018-05-03T04:04:15.646Z,82.10
2018-05-03T04:05:11.389Z,82.10
2018-05-03T04:06:06.340Z,82.00
2018-05-03T04:07:10.741Z,82.00
2018-05-03T04:08:06.604Z,82.00
2018-05-03T04:09:05.682Z,82.00
2018-05-03T04:10:06.444Z,82.00
2018-05-03T04:11:09.259Z,82.10
2018-05-03T04:12:05.816Z,82.10
2018-05-03T04:13:05.953Z,82.10
2018-05-03T04:14:06.084Z,82.10
2018-05-03T04:15:06.196Z,82.10
2018-05-03T04:16:11.028Z,82.20
2018-05-03T04:17:08.160Z,82.40
2018-05-03T04:18:06.432Z,82.50
2018-05-03T04:19:06.339Z,82.40
2018-05-03T04:20:06.178Z,82.60
2018-05-03T04:21:09.343Z,82.50
2018-05-03T04:22:11.359Z,82.50
2018-05-03T04:23:08.541Z,82.50
2018-05-03T04:24:06.600Z,82.60
2018-05-03T04:25:06.855Z,82.60
2018-05-03T04:26:10.750Z,82.60
2018-05-03T04:27:08.500Z,82.60
2018-05-03T04:28:06.251Z,82.60
2018-05-03T04:29:09.462Z,82.50
2018-05-03T04:30:06.020Z,82.50
2018-05-03T04:31:05.972Z,82.60
2018-05-03T04:32:06.762Z,82.50
2018-05-03T04:33:06.169Z,82.40
2018-05-03T04:34:06.495Z,82.50
2018-05-03T04:35:06.559Z,82.50
2018-05-03T04:36:05.536Z,82.70
2018-05-03T04:37:06.627Z,82.70
2018-05-03T04:38:11.835Z,82.60
2018-05-03T04:39:06.452Z,82.60
2018-05-03T04:40:06.614Z,82.50
2018-05-03T04:41:10.558Z,82.60
2018-05-03T04:42:12.117Z,82.70
2018-05-03T04:43:06.139Z,82.70
2018-05-03T04:44:05.530Z,82.80
2018-05-03T04:45:08.786Z,83.10
2018-05-03T04:46:07.638Z,83.10
2018-05-03T04:47:06.546Z,83.30
2018-05-03T04:48:05.749Z,83.20
2018-05-03T04:49:11.087Z,83.20
2018-05-03T04:50:05.907Z,83.20
2018-05-03T04:51:06.339Z,83.30
2018-05-03T04:52:06.216Z,83.20
2018-05-03T04:53:06.616Z,83.20
2018-05-03T04:54:06.438Z,83.10
2018-05-03T04:55:05.543Z,83.10
2018-05-03T04:56:08.930Z,83.00
2018-05-03T04:57:06.794Z,83.00
2018-05-03T04:58:06.899Z,83.10
2018-05-03T04:59:06.662Z,83.20
2018-05-03T05:00:05.641Z,83.20
2018-05-03T05:01:06.609Z,83.10
2018-05-03T05:02:06.610Z,83.30
2018-05-03T05:03:10.961Z,83.20
2018-05-03T05:04:11.618Z,83.10
2018-05-03T05:05:06.610Z,83.00
2018-05-03T05:06:06.341Z,83.00
2018-05-03T05:07:06.508Z,83.20
2018-05-03T05:08:06.464Z,83.30
2018-05-03T05:09:06.085Z,83.20
2018-05-03T05:10:06.371Z,83.20
2018-05-03T05:11:08.788Z,83.20
2018-05-03T05:12:06.471Z,83.20
2018-05-03T05:13:06.570Z,83.20
2018-05-03T05:14:05.677Z,83.20
2018-05-03T05:15:05.880Z,83.20
2018-05-03T05:16:10.688Z,83.20
2018-05-03T05:17:09.044Z,83.30
2018-05-03T05:18:06.396Z,83.30
2018-05-03T05:19:06.517Z,83.30
2018-05-03T05:20:11.566Z,83.60
2018-05-03T05:21:11.148Z,83.60
2018-05-03T05:22:08.393Z,83.60
2018-05-03T05:23:11.083Z,83.60
2018-05-03T05:24:06.837Z,83.60
2018-05-03T05:25:07.009Z,83.70
2018-05-03T05:26:06.967Z,83.70
2018-05-03T05:27:05.633Z,83.70
2018-05-03T05:28:16.450Z,83.80
2018-05-03T05:29:06.187Z,83.80
2018-05-03T05:30:06.078Z,84.10
2018-05-03T05:31:05.630Z,84.00
2018-05-03T05:32:05.522Z,84.20
2018-05-03T05:33:08.611Z,84.20
2018-05-03T05:34:06.534Z,84.20
2018-05-03T05:35:10.743Z,84.20
2018-05-03T05:36:06.241Z,84.10
2018-05-03T05:37:08.365Z,84.10
2018-05-03T05:38:06.446Z,84.10
2018-05-03T05:39:06.292Z,84.10
2018-05-03T05:40:06.182Z,84.20
2018-05-03T05:41:06.796Z,84.20
2018-05-03T05:42:06.037Z,84.40
2018-05-03T05:43:06.151Z,84.30
2018-05-03T05:44:06.393Z,84.20
2018-05-03T05:45:14.030Z,84.40
2018-05-03T05:46:05.745Z,84.40
2018-05-03T05:47:06.340Z,84.40
2018-05-03T05:48:10.295Z,84.70
2018-05-03T05:49:10.931Z,84.60
2018-05-03T05:50:06.979Z,84.70
2018-05-03T05:51:08.430Z,85.20
2018-05-03T05:52:06.615Z,85.20
2018-05-03T05:53:13.752Z,85.10
2018-05-03T05:54:12.269Z,84.90
2018-05-03T05:55:06.694Z,85.00
2018-05-03T05:56:08.408Z,84.30
2018-05-03T05:57:06.464Z,84.30
2018-05-03T05:58:06.217Z,84.00
2018-05-03T05:59:10.981Z,83.70
2018-05-03T06:00:05.773Z,82.90
2018-05-03T06:01:06.071Z,82.50
2018-05-03T06:02:06.515Z,82.20
2018-05-03T06:03:06.588Z,81.80
2018-05-03T06:04:06.703Z,81.10
2018-05-03T06:05:11.152Z,80.10
2018-05-03T06:06:05.981Z,76.90
2018-05-03T06:07:08.195Z,79.40
2018-05-03T06:08:06.085Z,79.40
2018-05-03T06:09:10.883Z,78.20
2018-05-03T06:10:06.788Z,78.30
2018-05-03T06:11:10.124Z,77.80
2018-05-03T06:12:05.833Z,77.80
2018-05-03T06:13:05.722Z,77.60
2018-05-03T06:14:09.876Z,77.10
2018-05-03T06:15:06.242Z,77.10
2018-05-03T06:16:08.205Z,76.20
2018-05-03T06:17:09.644Z,76.20
2018-05-03T06:18:09.663Z,76.00
2018-05-03T06:19:09.006Z,76.00
2018-05-03T06:20:08.116Z,75.80
2018-05-03T06:21:10.725Z,75.80
2018-05-03T06:22:07.169Z,75.30
2018-05-03T06:23:05.981Z,74.20
2018-05-03T06:24:05.711Z,73.90
2018-05-03T06:25:09.001Z,73.80
2018-05-03T06:26:05.642Z,73.80
2018-05-03T06:27:06.147Z,73.70
2018-05-03T06:28:10.770Z,73.80
2018-05-03T06:29:06.400Z,73.50
2018-05-03T06:30:10.664Z,73.30
2018-05-03T06:31:06.575Z,73.50
2018-05-03T06:32:08.136Z,73.70
2018-05-03T06:33:08.369Z,73.80
2018-05-03T06:34:06.445Z,73.80
2018-05-03T06:35:11.297Z,73.70
2018-05-03T06:36:08.675Z,74.00
2018-05-03T06:37:06.514Z,74.10
2018-05-03T06:38:11.218Z,73.90
2018-05-03T06:39:05.809Z,73.90
2018-05-03T06:40:10.760Z,73.90
2018-05-03T06:41:06.075Z,74.10
2018-05-03T06:42:06.026Z,74.50
2018-05-03T06:43:08.869Z,74.20
2018-05-03T06:44:10.491Z,74.50
2018-05-03T06:45:06.693Z,74.60
2018-05-03T06:46:06.494Z,74.70
2018-05-03T06:47:08.628Z,74.40
2018-05-03T06:48:06.130Z,74.30
2018-05-03T06:49:06.127Z,73.80
2018-05-03T06:50:06.016Z,74.00
2018-05-03T06:51:06.509Z,73.90
2018-05-03T06:52:06.344Z,73.90
2018-05-03T06:53:06.286Z,73.60
2018-05-03T06:54:10.921Z,72.90
2018-05-03T06:55:05.613Z,73.00
2018-05-03T06:56:11.143Z,72.70
2018-05-03T06:57:06.106Z,72.70
2018-05-03T06:58:06.112Z,72.60
2018-05-03T06:59:08.347Z,71.50
2018-05-03T07:00:10.944Z,71.50
2018-05-03T07:01:08.227Z,70.20
2018-05-03T07:02:10.855Z,69.70
2018-05-03T07:03:08.572Z,69.20
2018-05-03T07:04:06.424Z,69.20
2018-05-03T07:05:08.773Z,69.60
2018-05-03T07:06:10.273Z,69.60
2018-05-03T07:07:06.058Z,69.50
2018-05-03T07:08:10.863Z,69.20
2018-05-03T07:09:08.338Z,68.50
2018-05-03T07:10:10.895Z,67.80
2018-05-03T07:11:11.378Z,67.20
2018-05-03T07:12:06.067Z,67.20
2018-05-03T07:13:05.666Z,66.80
2018-05-03T07:14:06.001Z,65.80
2018-05-03T07:15:05.721Z,65.70
2018-05-03T07:16:08.046Z,65.10
2018-05-03T07:17:05.670Z,65.10
2018-05-03T07:18:05.958Z,65.40
2018-05-03T07:19:05.751Z,64.90
2018-05-03T07:20:06.388Z,64.60
2018-05-03T07:21:06.432Z,64.00
2018-05-03T07:22:05.630Z,63.80
2018-05-03T07:23:11.282Z,63.70
2018-05-03T07:24:09.076Z,63.40
2018-05-03T07:25:05.734Z,63.40
2018-05-03T07:26:08.440Z,62.70
2018-05-03T07:27:09.802Z,62.90
2018-05-03T07:28:06.801Z,62.90
2018-05-03T07:29:06.208Z,61.60
2018-05-03T07:30:05.972Z,62.10
2018-05-03T07:31:08.143Z,61.80
2018-05-03T07:32:14.226Z,61.40
2018-05-03T07:33:14.312Z,59.90
2018-05-03T07:34:05.975Z,59.90
2018-05-03T07:35:05.950Z,57.70
2018-05-03T07:36:11.786Z,52.20
2018-05-03T07:37:06.775Z,52.20
2018-05-03T07:38:10.806Z,48.50
2018-05-03T07:39:06.427Z,48.50
2018-05-03T07:40:06.512Z,48.20
2018-05-03T07:41:09.339Z,46.40
2018-05-03T07:42:05.980Z,46.20
2018-05-03T07:43:06.337Z,45.60
2018-05-03T07:44:08.776Z,46.20
2018-05-03T07:45:06.555Z,46.30
2018-05-03T07:46:11.345Z,45.20
2018-05-03T07:47:05.935Z,45.30
2018-05-03T07:48:08.614Z,44.60
2018-05-03T07:49:11.285Z,44.60
2018-05-03T07:50:10.287Z,44.80
2018-05-03T07:51:06.759Z,44.90
2018-05-03T07:52:14.049Z,43.80
2018-05-03T07:53:05.543Z,43.80
2018-05-03T07:54:06.521Z,44.60
2018-05-03T07:55:08.599Z,44.70
2018-05-03T07:56:06.114Z,44.60
2018-05-03T07:57:06.134Z,44.40
2018-05-03T07:58:06.325Z,44.30
2018-05-03T07:59:05.882Z,44.40
2018-05-03T08:00:06.528Z,44.20
2018-05-03T08:01:06.757Z,43.80
2018-05-03T08:02:06.191Z,43.20
2018-05-03T08:03:08.326Z,44.20
2018-05-03T08:04:05.973Z,44.20
2018-05-03T08:05:05.956Z,43.90
2018-05-03T08:06:05.625Z,43.90
2018-05-03T08:07:06.269Z,44.30
2018-05-03T08:08:05.942Z,43.80
2018-05-03T08:09:05.765Z,43.20
2018-05-03T08:10:06.754Z,41.90
2018-05-03T08:11:06.324Z,41.70
2018-05-03T08:12:05.950Z,41.60
2018-05-03T08:13:06.129Z,41.70
2018-05-03T08:14:11.930Z,40.60
2018-05-03T08:15:10.955Z,42.20
2018-05-03T08:16:07.239Z,42.20
2018-05-03T08:17:11.230Z,41.90
2018-05-03T08:18:06.197Z,41.90
2018-05-03T08:19:08.318Z,42.10
2018-05-03T08:20:10.936Z,41.80
2018-05-03T08:21:09.816Z,42.20
2018-05-03T08:22:06.927Z,42.20
2018-05-03T08:23:10.170Z,42.20
2018-05-03T08:24:06.415Z,42.20
2018-05-03T08:25:06.369Z,42.70
2018-05-03T08:26:06.467Z,43.10
2018-05-03T08:27:06.585Z,43.90
2018-05-03T08:28:11.449Z,43.40
2018-05-03T08:29:06.373Z,43.20
2018-05-03T08:30:05.993Z,43.70
2018-05-03T08:31:05.653Z,43.70
2018-05-03T08:32:06.069Z,43.90
2018-05-03T08:33:24.141Z,43.40
2018-05-03T08:34:10.772Z,43.40
2018-05-03T08:35:06.011Z,43.10
2018-05-03T08:36:05.686Z,42.70
2018-05-03T08:37:06.762Z,42.80
2018-05-03T08:38:11.201Z,42.30
2018-05-03T08:39:08.719Z,43.50
2018-05-03T08:40:11.448Z,43.50
2018-05-03T08:41:11.258Z,42.40
2018-05-03T08:42:10.892Z,42.70
2018-05-03T08:43:06.740Z,42.80
2018-05-03T08:44:06.484Z,42.50
2018-05-03T08:45:06.527Z,42.70
2018-05-03T08:46:11.420Z,42.30
2018-05-03T08:47:08.455Z,42.30
2018-05-03T08:48:08.558Z,42.30
2018-05-03T08:49:06.458Z,42.50
2018-05-03T08:50:08.871Z,43.00
2018-05-03T08:51:11.483Z,43.30
2018-05-03T08:52:06.194Z,43.30
2018-05-03T08:53:05.973Z,43.30
2018-05-03T08:54:06.628Z,43.00
2018-05-03T08:55:08.950Z,43.70
2018-05-03T08:56:05.730Z,43.70
2018-05-03T08:57:09.516Z,44.00
2018-05-03T08:58:08.768Z,43.70
2018-05-03T08:59:07.435Z,43.70
2018-05-03T09:00:06.191Z,44.00
2018-05-03T09:01:10.898Z,45.10
2018-05-03T09:02:10.692Z,45.00
2018-05-03T09:03:05.986Z,45.10
2018-05-03T09:04:11.174Z,44.30
2018-05-03T09:05:05.844Z,44.30
2018-05-03T09:06:09.744Z,42.80
2018-05-03T09:07:09.266Z,42.70
2018-05-03T09:08:06.080Z,42.70
2018-05-03T09:09:08.623Z,43.00
2018-05-03T09:10:11.194Z,42.50
2018-05-03T09:11:06.000Z,42.50
2018-05-03T09:12:08.332Z,42.70
2018-05-03T09:13:06.477Z,42.70
2018-05-03T09:14:08.270Z,42.80
2018-05-03T09:15:08.164Z,42.90
2018-05-03T09:16:08.910Z,42.70
2018-05-03T09:17:06.511Z,42.70
2018-05-03T09:18:05.899Z,42.80
2018-05-03T09:19:08.761Z,43.20
2018-05-03T09:20:11.405Z,42.70
2018-05-03T09:21:08.094Z,43.10
2018-05-03T09:22:05.686Z,43.00
2018-05-03T09:23:05.648Z,42.90
2018-05-03T09:24:11.033Z,42.60
2018-05-03T09:25:05.689Z,42.60
2018-05-03T09:26:11.505Z,42.80
2018-05-03T09:27:05.999Z,42.80
2018-05-03T09:28:06.173Z,43.00
2018-05-03T09:29:08.606Z,42.20
2018-05-03T09:30:08.717Z,42.30
2018-05-03T09:31:11.558Z,42.30
2018-05-03T09:32:06.311Z,42.60
2018-05-03T09:33:06.277Z,43.00
2018-05-03T09:34:05.916Z,42.90
2018-05-03T09:35:08.522Z,43.60
2018-05-03T09:36:08.811Z,44.00
2018-05-03T09:37:06.741Z,44.00
2018-05-03T09:38:06.411Z,43.90
2018-05-03T09:39:11.232Z,43.80
2018-05-03T09:40:10.921Z,43.50
2018-05-03T09:41:06.426Z,43.50
2018-05-03T09:42:06.821Z,43.70
2018-05-03T09:43:06.467Z,44.10
2018-05-03T09:44:08.632Z,44.30
2018-05-03T09:45:06.358Z,44.20
2018-05-03T09:46:06.119Z,44.70
2018-05-03T09:47:08.804Z,44.20
2018-05-03T09:48:08.899Z,44.50
2018-05-03T09:49:06.477Z,44.40
2018-05-03T09:50:08.709Z,44.50
2018-05-03T09:51:16.086Z,44.40
2018-05-03T09:52:08.178Z,43.40
2018-05-03T09:53:11.560Z,43.90
2018-05-03T09:54:08.769Z,44.20
2018-05-03T09:55:06.571Z,44.20
2018-05-03T09:56:06.339Z,43.70
2018-05-03T09:57:06.647Z,43.00
2018-05-03T09:58:06.520Z,42.70
2018-05-03T09:59:08.299Z,42.80
2018-05-03T10:00:05.520Z,42.80
2018-05-03T10:01:08.675Z,43.40
2018-05-03T10:02:08.860Z,43.50
2018-05-03T10:03:05.744Z,43.50
2018-05-03T10:04:11.307Z,42.70
2018-05-03T10:05:06.065Z,42.70
2018-05-03T10:06:10.896Z,42.70
2018-05-03T10:07:06.744Z,42.70
2018-05-03T10:08:06.072Z,43.00
2018-05-03T10:09:08.019Z,43.20
2018-05-03T10:10:05.559Z,43.30
2018-05-03T10:11:10.728Z,43.20
2018-05-03T10:12:11.392Z,43.20
2018-05-03T10:13:05.953Z,43.50
2018-05-03T10:14:05.947Z,43.10
2018-05-03T10:15:09.120Z,44.50
2018-05-03T10:16:10.773Z,44.50
2018-05-03T10:17:08.903Z,42.20
2018-05-03T10:18:09.175Z,42.00
2018-05-03T10:19:05.820Z,42.00
2018-05-03T10:20:11.197Z,41.30
2018-05-03T10:21:10.843Z,40.90
2018-05-03T10:22:05.865Z,40.90
2018-05-03T10:23:09.107Z,41.20
2018-05-03T10:24:05.759Z,41.10
2018-05-03T10:25:06.538Z,39.90
2018-05-03T10:26:11.678Z,39.70
2018-05-03T10:27:09.954Z,39.40
2018-05-03T10:28:06.935Z,39.40
2018-05-03T10:29:11.217Z,39.80
2018-05-03T10:30:05.817Z,38.90
2018-05-03T10:31:09.072Z,40.00
2018-05-03T10:32:10.522Z,40.10
2018-05-03T10:33:06.732Z,41.10
2018-05-03T10:34:08.935Z,41.50
2018-05-03T10:35:06.507Z,41.50
2018-05-03T10:36:06.402Z,41.00
2018-05-03T10:37:06.413Z,40.50
2018-05-03T10:38:06.050Z,39.20
2018-05-03T10:39:05.924Z,39.30
2018-05-03T10:40:05.985Z,39.20
2018-05-03T10:41:06.568Z,38.60
2018-05-03T10:42:06.917Z,38.90
2018-05-03T10:43:11.784Z,39.10
2018-05-03T10:44:08.889Z,39.30
2018-05-03T10:45:06.624Z,39.30
2018-05-03T10:46:06.175Z,39.30
2018-05-03T10:47:05.772Z,40.10
2018-05-03T10:48:08.857Z,39.80
2018-05-03T10:49:06.779Z,39.80
2018-05-03T10:50:06.332Z,39.10
2018-05-03T10:51:06.140Z,39.00
2018-05-03T10:52:06.222Z,38.40
2018-05-03T10:53:05.478Z,38.70
2018-05-03T10:54:06.342Z,39.30
2018-05-03T10:55:07.920Z,39.20
2018-05-03T10:56:06.549Z,39.20
2018-05-03T10:57:11.529Z,38.10
2018-05-03T10:58:05.857Z,38.10
2018-05-03T10:59:06.616Z,38.70
2018-05-03T11:00:10.568Z,38.70
2018-05-03T11:01:06.375Z,39.20
2018-05-03T11:02:12.217Z,38.50
2018-05-03T11:03:08.561Z,39.30
2018-05-03T11:04:10.019Z,39.30
2018-05-03T11:05:05.583Z,39.30
2018-05-03T11:06:05.697Z,39.30
2018-05-03T11:07:11.418Z,38.90
2018-05-03T11:08:05.998Z,38.80
2018-05-03T11:09:06.029Z,38.50
2018-05-03T11:10:06.775Z,38.40
2018-05-03T11:11:08.644Z,38.80
2018-05-03T11:12:07.337Z,38.70
2018-05-03T11:13:09.263Z,38.80
2018-05-03T11:14:05.986Z,38.80
2018-05-03T11:15:16.331Z,39.50
2018-05-03T11:16:05.780Z,39.50
2018-05-03T11:17:06.122Z,39.20
2018-05-03T11:18:06.114Z,39.30
2018-05-03T11:19:08.333Z,38.00
2018-05-03T11:20:06.205Z,38.10
2018-05-03T11:21:10.821Z,39.30
2018-05-03T11:22:08.801Z,39.60
2018-05-03T11:23:06.529Z,39.60
2018-05-03T11:24:06.379Z,39.80
2018-05-03T11:25:06.452Z,41.10
2018-05-03T11:26:06.461Z,39.80
2018-05-03T11:27:06.176Z,40.10
2018-05-03T11:28:09.047Z,39.10
2018-05-03T11:29:06.382Z,39.00
2018-05-03T11:30:08.610Z,39.30
2018-05-03T11:31:06.373Z,39.40
2018-05-03T11:32:05.717Z,39.90
2018-05-03T11:33:08.322Z,39.20
2018-05-03T11:34:05.891Z,39.10
2018-05-03T11:35:10.715Z,39.00
2018-05-03T11:36:06.522Z,39.00
2018-05-03T11:37:09.555Z,36.50
2018-05-03T11:38:06.219Z,36.50
2018-05-03T11:39:06.319Z,36.40
2018-05-03T11:40:06.068Z,37.10
2018-05-03T11:41:05.683Z,37.10
2018-05-03T11:42:09.535Z,37.70
2018-05-03T11:43:06.242Z,37.70
2018-05-03T11:44:11.318Z,38.80
2018-05-03T11:45:08.266Z,39.10
2018-05-03T11:46:10.917Z,39.10
2018-05-03T11:47:09.220Z,36.80
2018-05-03T11:48:06.369Z,36.80
2018-05-03T11:49:13.790Z,36.60
2018-05-03T11:50:11.328Z,36.60
2018-05-03T11:51:06.101Z,37.00
2018-05-03T11:52:06.749Z,37.50
2018-05-03T11:53:09.060Z,36.70
2018-05-03T11:54:10.765Z,36.70
2018-05-03T11:55:11.627Z,33.40
2018-05-03T11:56:06.294Z,36.10
2018-05-03T11:57:05.823Z,36.90
2018-05-03T11:58:09.692Z,36.70
2018-05-03T11:59:11.805Z,36.60
2018-05-03T12:00:06.849Z,36.60
2018-05-03T12:01:07.965Z,38.00
2018-05-03T12:02:05.727Z,38.00
2018-05-03T12:03:16.377Z,38.60
2018-05-03T12:04:09.740Z,37.30
2018-05-03T12:05:06.189Z,37.30
2018-05-03T12:06:09.619Z,37.40
2018-05-03T12:07:06.792Z,37.20
2018-05-03T12:08:06.510Z,37.10
2018-05-03T12:09:08.599Z,35.90
2018-05-03T12:10:06.179Z,35.80
2018-05-03T12:11:11.616Z,35.00
2018-05-03T12:12:06.540Z,35.50
2018-05-03T12:13:08.884Z,36.20
2018-05-03T12:14:06.992Z,36.30
2018-05-03T12:15:09.491Z,36.00
2018-05-03T12:16:11.134Z,36.00
2018-05-03T12:17:06.302Z,34.20
2018-05-03T12:18:06.744Z,35.50
2018-05-03T12:19:08.777Z,35.90
2018-05-03T12:20:11.237Z,35.90
2018-05-03T12:21:08.435Z,35.20
2018-05-03T12:22:05.989Z,35.30
2018-05-03T12:23:06.131Z,35.20
2018-05-03T12:24:10.369Z,35.60
2018-05-03T12:25:06.131Z,35.50
2018-05-03T12:26:06.534Z,35.30
2018-05-03T12:27:07.253Z,35.70
2018-05-03T12:28:06.450Z,34.90
2018-05-03T12:29:06.045Z,35.10
2018-05-03T12:30:10.763Z,35.70
2018-05-03T12:31:06.515Z,35.70
2018-05-03T12:32:06.575Z,35.80
2018-05-03T12:33:08.171Z,35.50
2018-05-03T12:34:06.265Z,32.30
2018-05-03T12:35:08.742Z,35.00
2018-05-03T12:36:06.512Z,35.00
2018-05-03T12:37:09.050Z,34.80
2018-05-03T12:38:06.302Z,34.80
2018-05-03T12:39:06.456Z,35.40
2018-05-03T12:40:13.655Z,35.00
2018-05-03T12:41:08.700Z,35.00
2018-05-03T12:42:11.540Z,35.00
2018-05-03T12:43:06.209Z,35.00
2018-05-03T12:44:09.545Z,35.20
2018-05-03T12:45:06.681Z,35.30
2018-05-03T12:46:09.130Z,34.90
2018-05-03T12:47:06.292Z,34.80
2018-05-03T12:48:06.100Z,34.90
2018-05-03T12:49:06.035Z,34.90
2018-05-03T12:50:06.318Z,35.30
2018-05-03T12:51:10.950Z,35.30
2018-05-03T12:52:06.108Z,35.50